Time;durP1;ratioP1;P1;durP2;ratioP2;P2;SDS_P1;SDS_P2;PMS_P1;PMS_P2;Temp;Humidity;BMP_temperature;BMP_pressure;BME280_temperature;BME280_humidity;BME280_pressure;Samples;Min_cycle;Max_cycle;Signal;HPM_P1;HPM_P2
2021/12/21 00:01:22;;;;;;;3.60;2.20;;;;;;;-1.96;74.35;98449.25;6113287;28;20372;-88
2021/12/21 00:04:24;;;;;;;4.77;2.10;;;;;;;-2.01;74.90;98445.91;6109463;28;20259;-88
2021/12/21 00:07:26;;;;;;;4.70;2.30;;;;;;;-2.11;75.07;98452.13;6098357;28;20600;-88
2021/12/21 00:10:31;;;;;;;3.07;2.10;;;;;;;-2.09;75.30;98456.38;6125134;28;20238;-88
2021/12/21 00:17:02;;;;;;;4.60;2.50;;;;;;;-2.15;75.49;98455.63;6123838;28;20310;-87
2021/12/21 00:20:22;;;;;;;3.23;2.07;;;;;;;-2.04;74.55;98448.53;6108165;28;20581;-88
2021/12/21 00:26:32;;;;;;;2.70;1.97;;;;;;;-2.05;74.43;98449.44;6109249;28;20330;-90
2021/12/21 00:29:34;;;;;;;3.07;1.93;;;;;;;-2.13;74.14;98464.22;6107946;28;20243;-88
2021/12/21 00:32:36;;;;;;;3.70;2.00;;;;;;;-2.16;75.08;98466.84;6108113;28;20223;-88
2021/12/21 00:35:38;;;;;;;2.50;2.30;;;;;;;-2.15;74.70;98468.56;6091104;29;20243;-89
2021/12/21 00:38:40;;;;;;;5.57;2.50;;;;;;;-2.19;74.75;98472.06;6114957;28;20738;-88
2021/12/21 00:41:42;;;;;;;2.63;2.20;;;;;;;-2.30;75.40;98467.09;6107719;28;20782;-88
2021/12/21 00:44:44;;;;;;;2.80;2.13;;;;;;;-2.34;75.36;98470.59;6108039;28;20325;-89
2021/12/21 00:47:48;;;;;;;2.80;2.03;;;;;;;-2.44;75.66;98479.38;6106875;28;20227;-88
2021/12/21 00:50:50;;;;;;;3.57;1.70;;;;;;;-2.55;76.20;98471.78;6123175;28;20234;-88
2021/12/21 00:53:53;;;;;;;3.93;2.43;;;;;;;-2.62;76.25;98465.03;6107682;28;20734;-88
2021/12/21 00:56:55;;;;;;;5.33;2.40;;;;;;;-2.68;76.88;98480.59;6111620;28;20357;-88
2021/12/21 00:59:57;;;;;;;2.10;1.70;;;;;;;-2.57;76.78;98477.84;6128816;28;20317;-88
2021/12/21 01:03:05;;;;;;;2.90;2.23;;;;;;;-2.66;77.00;98484.88;6111588;29;20227;-88
2021/12/21 01:06:25;;;;;;;3.17;2.13;;;;;;;-2.77;77.52;98480.75;6113306;28;20238;-88
2021/12/21 01:19:08;;;;;;;3.13;2.30;;;;;;;-2.80;77.49;98486.81;6117941;28;20328;-88
2021/12/21 01:25:35;;;;;;;3.47;2.40;;;;;;;-2.83;77.80;98486.00;6148926;28;20230;-89
2021/12/21 01:28:46;;;;;;;2.50;1.90;;;;;;;-2.93;77.61;98477.53;6113224;29;20238;-88
2021/12/21 01:35:46;;;;;;;2.57;2.00;;;;;;;-3.12;78.41;98479.50;6110755;29;20726;-88
2021/12/21 01:38:48;;;;;;;3.93;2.27;;;;;;;-3.20;78.97;98478.78;6103047;29;20250;-88
2021/12/21 01:51:37;;;;;;;2.50;1.90;;;;;;;-2.94;77.61;98472.38;6095283;28;20231;-88
2021/12/21 01:54:41;;;;;;;4.03;2.10;;;;;;;-2.91;77.11;98472.34;6116032;28;20233;-88
2021/12/21 01:57:43;;;;;;;4.63;2.40;;;;;;;-2.97;77.71;98470.69;6112150;28;20255;-88
2021/12/21 02:00:45;;;;;;;1.80;1.70;;;;;;;-3.01;77.98;98472.47;6114957;28;20338;-88
2021/12/21 02:03:51;;;;;;;2.90;2.23;;;;;;;-2.92;77.13;98470.66;6110937;28;20715;-87
2021/12/21 02:06:53;;;;;;;2.63;2.03;;;;;;;-2.98;77.07;98476.72;6130494;28;20321;-88
2021/12/21 02:09:55;;;;;;;2.87;2.00;;;;;;;-3.03;77.35;98466.47;6134130;28;20234;-88
2021/12/21 02:12:57;;;;;;;3.70;2.30;;;;;;;-3.13;77.31;98464.91;6134410;28;20254;-88
2021/12/21 02:16:01;;;;;;;2.77;2.07;;;;;;;-3.21;77.78;98471.03;6103100;29;20635;-88
2021/12/21 02:19:09;;;;;;;1.80;1.70;;;;;;;-3.28;78.60;98480.56;6129358;28;20765;-87
2021/12/21 02:22:16;;;;;;;1.93;1.60;;;;;;;-3.36;77.90;98472.06;6133284;28;20329;-88
2021/12/21 02:31:31;;;;;;;3.07;1.80;;;;;;;-3.56;78.87;98468.88;6119700;28;20245;-88
2021/12/21 02:34:33;;;;;;;3.77;2.00;;;;;;;-3.59;78.55;98474.91;6130835;28;20325;-88
2021/12/21 02:37:35;;;;;;;2.83;2.13;;;;;;;-3.53;78.58;98477.44;6133188;28;20256;-88
2021/12/21 02:40:37;;;;;;;3.00;1.87;;;;;;;-3.52;78.63;98475.72;6133426;28;20324;-88
2021/12/21 02:43:40;;;;;;;2.73;1.80;;;;;;;-3.56;78.72;98477.47;6133840;28;20648;-87
2021/12/21 02:46:43;;;;;;;2.00;1.30;;;;;;;-3.59;78.57;98476.66;6132640;28;20321;-88
2021/12/21 02:49:45;;;;;;;2.77;1.93;;;;;;;-3.68;78.87;98479.31;6149496;28;20230;-88
2021/12/21 02:52:48;;;;;;;2.67;1.73;;;;;;;-3.76;78.68;98482.84;6111582;28;20753;-88
2021/12/21 02:55:50;;;;;;;2.00;1.70;;;;;;;-3.85;78.57;98482.94;6112058;28;20270;-88
2021/12/21 02:58:52;;;;;;;1.83;1.73;;;;;;;-3.90;79.41;98481.31;6133122;28;20272;-87
2021/12/21 03:01:54;;;;;;;2.30;1.90;;;;;;;-3.98;79.04;98478.78;6116762;28;20225;-88
2021/12/21 03:04:56;;;;;;;2.57;1.83;;;;;;;-4.04;78.73;98485.72;6124346;28;20330;-88
2021/12/21 03:14:38;;;;;;;2.20;2.00;;;;;;;-4.19;79.59;98484.97;6130695;28;20710;-88
2021/12/21 03:17:40;;;;;;;2.03;1.70;;;;;;;-4.24;79.33;98491.91;6133334;28;20265;-87
2021/12/21 03:20:42;;;;;;;2.37;2.07;;;;;;;-4.30;79.13;98488.53;6114292;28;20246;-89
2021/12/21 03:23:44;;;;;;;2.20;1.97;;;;;;;-4.30;79.34;98491.13;6121498;28;20249;-88
2021/12/21 03:26:46;;;;;;;5.57;1.57;;;;;;;-4.29;80.00;98490.25;6134601;28;20782;-87
2021/12/21 03:29:49;;;;;;;2.60;2.00;;;;;;;-4.30;79.71;98497.13;6131748;28;20309;-87
2021/12/21 03:32:51;;;;;;;2.97;2.13;;;;;;;-4.31;79.48;98492.84;6131823;28;20236;-87
2021/12/21 03:35:53;;;;;;;2.53;1.80;;;;;;;-4.37;79.52;98490.28;6107560;28;20251;-87
2021/12/21 03:39:04;;;;;;;2.30;1.70;;;;;;;-4.43;79.53;98494.66;6092299;28;20401;-88
2021/12/21 03:42:08;;;;;;;3.07;1.53;;;;;;;-4.52;80.22;98493.88;6110360;29;20235;-87
2021/12/21 03:45:10;;;;;;;3.07;1.67;;;;;;;-4.58;79.88;98498.19;6144413;28;20219;-88
2021/12/21 03:48:14;;;;;;;5.03;2.10;;;;;;;-4.63;80.35;98503.38;6117662;28;20706;-88
2021/12/21 03:51:18;;;;;;;1.60;1.50;;;;;;;-4.64;80.54;98501.66;6121583;28;20223;-88
2021/12/21 03:54:20;;;;;;;3.37;1.80;;;;;;;-4.65;80.18;98496.53;6132581;28;20309;-87
2021/12/21 03:57:23;;;;;;;3.03;1.90;;;;;;;-4.68;80.41;98504.25;6132547;28;20230;-88
2021/12/21 04:00:27;;;;;;;2.13;1.70;;;;;;;-4.74;80.51;98507.75;6131763;28;20234;-88
2021/12/21 04:03:29;;;;;;;3.23;2.00;;;;;;;-4.79;80.68;98501.75;6132323;28;20742;-88
2021/12/21 04:06:32;;;;;;;2.33;2.10;;;;;;;-4.82;80.59;98506.09;6082840;29;20238;-87
2021/12/21 04:09:34;;;;;;;2.70;1.93;;;;;;;-4.86;80.99;98500.09;6140848;28;20226;-88
2021/12/21 04:12:36;;;;;;;2.40;1.70;;;;;;;-4.84;81.03;98506.09;6132030;28;20222;-87
2021/12/21 04:15:49;;;;;;;2.87;1.87;;;;;;;-4.90;80.82;98503.56;6118256;28;20318;-88
2021/12/21 04:18:51;;;;;;;1.87;1.67;;;;;;;-4.98;81.34;98508.72;6121685;28;20249;-88
2021/12/21 04:21:53;;;;;;;2.13;1.83;;;;;;;-5.04;80.90;98507.94;6132670;28;20785;-88
2021/12/21 04:24:55;;;;;;;2.23;1.77;;;;;;;-5.09;81.34;98502.78;6131585;28;20218;-87
2021/12/21 04:27:57;;;;;;;3.03;1.73;;;;;;;-5.15;81.55;98502.84;6139929;28;20227;-88
2021/12/21 04:31:00;;;;;;;2.93;1.83;;;;;;;-5.19;81.29;98505.44;6111467;28;20281;-88
2021/12/21 04:34:03;;;;;;;3.63;1.77;;;;;;;-5.23;81.81;98500.31;6108628;29;20247;-89
2021/12/21 04:37:06;;;;;;;2.33;1.63;;;;;;;-5.25;81.36;98506.31;6109369;28;20369;-88
2021/12/21 04:40:14;;;;;;;3.73;2.07;;;;;;;-5.27;81.51;98508.03;6113653;28;20233;-87
2021/12/21 04:43:16;;;;;;;3.33;1.80;;;;;;;-5.32;81.71;98502.06;6111815;28;20240;-88
2021/12/21 04:46:19;;;;;;;2.13;1.60;;;;;;;-5.35;82.02;98509.78;6112470;28;20230;-87
2021/12/21 04:49:21;;;;;;;5.63;2.10;;;;;;;-5.40;81.99;98496.09;6113239;28;20242;-87
2021/12/21 04:52:23;;;;;;;4.53;1.90;;;;;;;-5.42;81.89;98508.09;6105882;29;20796;-88
2021/12/21 04:55:27;;;;;;;3.67;1.77;;;;;;;-5.43;82.49;98504.69;6093958;29;20727;-88
2021/12/21 04:58:30;;;;;;;2.30;1.83;;;;;;;-5.47;81.99;98504.69;6127546;28;20269;-89
2021/12/21 05:01:33;;;;;;;2.50;1.80;;;;;;;-5.50;82.18;98499.56;6081161;29;20268;-88
2021/12/21 05:04:37;;;;;;;4.47;1.80;;;;;;;-5.55;82.44;98515.00;6104985;28;20308;-87
2021/12/21 05:07:42;;;;;;;2.23;1.80;;;;;;;-5.60;82.19;98514.16;6106263;28;20293;-88
2021/12/21 05:10:51;;;;;;;2.70;2.20;;;;;;;-5.60;82.64;98516.75;6113373;28;20232;-88
2021/12/21 05:13:53;;;;;;;4.70;1.80;;;;;;;-5.59;82.60;98510.75;6084305;28;20762;-87
2021/12/21 05:16:56;;;;;;;2.17;1.97;;;;;;;-5.61;82.30;98517.59;6127748;28;20235;-87
2021/12/21 05:19:58;;;;;;;4.57;2.10;;;;;;;-5.63;82.80;98527.03;6122357;28;20712;-87
2021/12/21 05:23:00;;;;;;;2.83;2.40;;;;;;;-5.66;82.44;98525.31;6074800;29;20814;-87
2021/12/21 05:26:02;;;;;;;3.67;2.17;;;;;;;-5.69;82.14;98527.06;6112493;28;20235;-89
2021/12/21 05:29:04;;;;;;;2.57;2.00;;;;;;;-5.70;82.89;98525.34;6111216;28;20782;-87
2021/12/21 05:32:07;;;;;;;2.40;2.10;;;;;;;-5.70;82.76;98525.34;6112804;28;20241;-87
2021/12/21 05:35:10;;;;;;;2.77;2.00;;;;;;;-5.71;82.93;98531.34;6090134;29;20259;-88
2021/12/21 05:38:17;;;;;;;2.97;1.90;;;;;;;-5.71;82.98;98529.63;6096775;28;20619;-86
2021/12/21 05:41:39;;;;;;;1.87;1.77;;;;;;;-5.72;82.97;98533.06;6116411;28;20747;-88
2021/12/21 05:44:41;;;;;;;2.47;1.87;;;;;;;-5.76;82.74;98538.19;6134200;28;20245;-87
2021/12/21 05:47:44;;;;;;;2.80;2.03;;;;;;;-5.80;83.17;98526.22;6133867;28;20214;-87
2021/12/21 05:50:46;;;;;;;3.43;2.07;;;;;;;-5.83;83.35;98529.63;6133914;28;20226;-87
2021/12/21 05:53:49;;;;;;;2.87;1.90;;;;;;;-5.84;83.16;98529.63;6127815;28;20227;-87
2021/12/21 05:56:51;;;;;;;4.13;2.23;;;;;;;-5.88;83.32;98533.09;6094717;28;20687;-88
2021/12/21 05:59:53;;;;;;;2.70;1.93;;;;;;;-5.90;83.39;98539.97;6109633;28;20258;-88
2021/12/21 06:02:55;;;;;;;2.10;1.90;;;;;;;-5.93;83.15;98539.97;6095617;28;20258;-86
2021/12/21 06:05:58;;;;;;;2.57;1.87;;;;;;;-5.92;83.43;98539.97;6090410;28;20227;-87
2021/12/21 06:09:05;;;;;;;2.47;2.00;;;;;;;-5.95;83.37;98542.53;6095742;28;20277;-88
2021/12/21 06:12:16;;;;;;;2.17;2.00;;;;;;;-5.96;83.93;98545.97;6106576;28;20634;-88
2021/12/21 06:15:45;;;;;;;3.27;1.87;;;;;;;-6.00;83.06;98532.28;6128080;29;20322;-87
2021/12/21 06:25:38;;;;;;;3.00;2.07;;;;;;;-6.09;83.96;98539.13;6133487;28;20642;-87
2021/12/21 06:28:45;;;;;;;2.47;2.07;;;;;;;-6.13;83.85;98535.72;6117114;28;20223;-87
2021/12/21 06:31:48;;;;;;;2.77;1.73;;;;;;;-6.16;83.34;98532.28;6134668;28;20238;-87
2021/12/21 06:34:50;;;;;;;2.13;1.93;;;;;;;-6.16;83.34;98540.84;6122792;28;20643;-87
2021/12/21 06:37:52;;;;;;;3.17;2.37;;;;;;;-6.17;83.29;98545.97;6131384;28;20245;-87
2021/12/21 06:40:55;;;;;;;4.30;1.90;;;;;;;-6.20;83.76;98546.00;6133665;28;20237;-86
2021/12/21 06:44:00;;;;;;;2.60;2.30;;;;;;;-6.22;83.71;98548.56;6133509;28;20838;-89
2021/12/21 06:53:31;;;;;;;4.57;1.77;;;;;;;-6.25;83.38;98558.81;6135631;28;20229;-87
2021/12/21 06:56:33;;;;;;;3.53;2.00;;;;;;;-6.27;82.90;98564.81;6128780;28;20337;-87
2021/12/21 06:59:35;;;;;;;2.27;1.90;;;;;;;-6.29;83.94;98562.25;6108742;28;20235;-87
2021/12/21 07:02:38;;;;;;;3.27;1.70;;;;;;;-6.30;83.60;98565.69;6094097;28;20751;-87
2021/12/21 07:05:40;;;;;;;2.90;2.10;;;;;;;-6.30;84.14;98563.13;6076273;29;20747;-87
2021/12/21 07:08:46;;;;;;;2.30;2.10;;;;;;;-6.28;84.00;98569.09;6120680;28;20226;-89
2021/12/21 07:12:20;;;;;;;2.90;2.30;;;;;;;-6.30;84.31;98563.13;6115192;28;20270;-87
2021/12/21 07:18:37;;;;;;;2.70;2.07;;;;;;;-6.28;84.04;98571.66;6116560;28;20318;-87
2021/12/21 07:21:39;;;;;;;1.97;1.63;;;;;;;-6.25;83.55;98569.09;6108699;28;20309;-87
2021/12/21 07:24:41;;;;;;;4.60;2.03;;;;;;;-6.23;84.26;98569.09;6118255;28;20233;-87
2021/12/21 07:27:43;;;;;;;2.20;2.00;;;;;;;-6.18;83.53;98568.22;6131649;28;20641;-89
2021/12/21 07:30:49;;;;;;;2.00;1.70;;;;;;;-6.19;84.06;98571.69;6132240;28;20281;-87
2021/12/21 07:33:51;;;;;;;2.10;1.90;;;;;;;-6.18;83.88;98570.78;6128900;28;20350;-88
2021/12/21 07:36:53;;;;;;;2.23;1.97;;;;;;;-6.18;84.00;98570.78;6132132;28;20305;-87
2021/12/21 07:39:55;;;;;;;2.00;1.57;;;;;;;-6.15;83.85;98570.81;6132228;28;20238;-88
2021/12/21 07:43:00;;;;;;;5.07;2.23;;;;;;;-6.12;83.87;98559.69;6132297;28;20238;-87
2021/12/21 07:46:03;;;;;;;2.33;2.13;;;;;;;-6.10;83.47;98566.53;6108985;28;20268;-88
2021/12/21 07:49:06;;;;;;;3.10;2.03;;;;;;;-6.09;83.66;98565.66;6111115;28;20238;-88
2021/12/21 07:52:10;;;;;;;3.80;1.73;;;;;;;-6.05;83.64;98551.97;6107806;28;20893;-88
2021/12/21 07:55:12;;;;;;;2.47;1.87;;;;;;;-5.99;83.74;98557.09;6114142;28;20226;-87
2021/12/21 07:58:15;;;;;;;3.20;2.23;;;;;;;-5.90;83.84;98552.81;6129567;28;20222;-88
2021/12/21 08:01:17;;;;;;;4.83;1.80;;;;;;;-5.82;83.89;98554.47;6131953;28;20602;-88
2021/12/21 08:04:26;;;;;;;2.43;1.87;;;;;;;-5.76;83.98;98559.59;6125008;28;20712;-86
2021/12/21 08:07:33;;;;;;;2.27;2.07;;;;;;;-5.71;83.64;98554.47;6123173;28;20553;-88
2021/12/21 08:10:50;;;;;;;3.97;2.60;;;;;;;-5.66;83.69;98555.31;6119326;28;20619;-87
2021/12/21 08:13:53;;;;;;;2.13;1.93;;;;;;;-5.57;83.46;98555.28;6130621;28;20235;-87
2021/12/21 08:16:55;;;;;;;3.47;2.40;;;;;;;-5.52;83.85;98551.00;6132461;28;20245;-88
2021/12/21 08:19:57;;;;;;;2.83;2.10;;;;;;;-5.44;83.92;98554.41;6132116;28;20235;-87
2021/12/21 08:23:01;;;;;;;2.13;1.90;;;;;;;-5.36;83.88;98554.34;6112671;29;20238;-88
2021/12/21 08:26:05;;;;;;;4.30;2.00;;;;;;;-5.28;83.59;98553.47;6106305;29;20234;-88
2021/12/21 08:29:08;;;;;;;3.27;2.50;;;;;;;-5.20;83.63;98553.47;6080231;28;20263;-87
2021/12/21 08:32:11;;;;;;;2.47;1.90;;;;;;;-5.11;83.58;98550.00;6108809;28;20231;-88
2021/12/21 08:35:13;;;;;;;2.20;2.00;;;;;;;-5.01;82.98;98559.38;6093932;29;20301;-87
2021/12/21 08:38:18;;;;;;;3.07;2.00;;;;;;;-4.93;83.62;98567.91;6119347;28;20331;-87
2021/12/21 08:41:22;;;;;;;1.77;1.67;;;;;;;-4.81;83.75;98562.72;6090620;29;20241;-86
2021/12/21 08:44:25;;;;;;;2.27;2.07;;;;;;;-4.69;82.89;98554.06;6112307;28;20242;-87
2021/12/21 08:47:28;;;;;;;3.03;2.10;;;;;;;-4.56;83.40;98566.84;6123985;28;20573;-88
2021/12/21 08:50:31;;;;;;;3.23;2.07;;;;;;;-4.40;83.35;98565.03;6122714;28;20338;-87
2021/12/21 08:53:33;;;;;;;2.53;2.07;;;;;;;-4.23;81.88;98560.63;6104569;29;20282;-87
2021/12/21 08:56:35;;;;;;;3.27;2.17;;;;;;;-3.98;82.14;98560.41;6099370;29;20323;-88
2021/12/21 08:59:37;;;;;;;2.20;1.90;;;;;;;-3.72;81.61;98558.47;6106910;28;20258;-87
2021/12/21 09:02:39;;;;;;;3.00;2.00;;;;;;;-3.42;80.44;98559.88;6123952;28;20235;-87
2021/12/21 09:05:43;;;;;;;3.67;2.10;;;;;;;-3.09;79.17;98556.03;6089341;29;21039;-92
2021/12/21 09:08:45;;;;;;;2.77;1.63;;;;;;;-2.78;77.32;98553.94;6115326;28;20719;-87
2021/12/21 09:11:49;;;;;;;2.50;2.10;;;;;;;-2.45;75.59;98550.88;6116381;28;20239;-87
2021/12/21 09:14:51;;;;;;;2.47;1.50;;;;;;;-2.15;74.36;98551.31;6113908;28;20254;-87
2021/12/21 09:17:54;;;;;;;1.40;1.30;;;;;;;-1.86;72.67;98549.09;6070267;29;20264;-88
2021/12/21 09:20:56;;;;;;;1.87;1.10;;;;;;;-1.54;70.90;98545.94;6074831;29;20242;-88
2021/12/21 09:23:58;;;;;;;1.17;1.07;;;;;;;-1.23;68.56;98536.72;6112125;28;20305;-88
2021/12/21 09:27:00;;;;;;;1.73;1.10;;;;;;;-0.95;68.23;98541.34;6133425;28;20261;-88
2021/12/21 09:30:06;;;;;;;1.43;1.00;;;;;;;-0.73;67.25;98532.22;6135490;28;20221;-88
2021/12/21 09:33:08;;;;;;;1.67;1.10;;;;;;;-0.49;66.69;98528.22;6135346;28;20850;-88
2021/12/21 09:36:11;;;;;;;2.97;1.30;;;;;;;-0.27;67.21;98521.66;6120543;28;20234;-87
2021/12/21 09:39:13;;;;;;;1.73;1.10;;;;;;;-0.08;67.69;98515.16;6123620;28;20215;-88
2021/12/21 09:42:17;;;;;;;0.77;0.77;;;;;;;0.16;66.91;98510.25;6135343;28;20218;-88
2021/12/21 09:45:20;;;;;;;1.30;1.20;;;;;;;0.40;64.86;98507.00;6128731;28;20234;-88
2021/12/21 09:48:23;;;;;;;2.13;1.00;;;;;;;0.63;64.52;98506.38;6122467;28;20231;-88
2021/12/21 09:51:25;;;;;;;1.53;0.80;;;;;;;0.76;63.11;98494.78;6109829;28;20718;-88
2021/12/21 09:54:29;;;;;;;3.47;0.97;;;;;;;0.84;63.37;98502.34;6110681;28;20362;-88
2021/12/21 09:57:31;;;;;;;0.83;0.70;;;;;;;0.92;63.36;98501.22;6094076;28;20243;-87
2021/12/21 10:00:34;;;;;;;1.20;1.10;;;;;;;1.07;58.58;98505.16;6110076;28;20223;-89
2021/12/21 10:03:37;;;;;;;1.30;1.20;;;;;;;1.24;58.83;98492.50;6125354;28;20227;-88
2021/12/21 10:06:48;;;;;;;2.80;1.40;;;;;;;1.41;58.14;98499.78;6099139;28;20254;-88
2021/12/21 10:10:00;;;;;;;3.80;1.50;;;;;;;1.47;57.67;98497.00;6106760;28;20239;-89
2021/12/21 10:13:07;;;;;;;1.90;1.50;;;;;;;1.47;57.75;98497.84;6086738;28;20690;-89
2021/12/21 10:16:10;;;;;;;2.13;1.20;;;;;;;1.55;57.88;98491.56;6134258;28;20638;-88
2021/12/21 10:19:23;;;;;;;2.37;1.37;;;;;;;1.64;56.68;98483.47;6134295;28;20373;-88
2021/12/21 10:22:25;;;;;;;4.60;1.50;;;;;;;1.89;56.23;98494.78;6132713;28;20321;-89
2021/12/21 10:25:28;;;;;;;1.37;1.17;;;;;;;1.88;55.79;98485.28;6132922;28;20821;-89
2021/12/21 10:28:38;;;;;;;1.87;1.20;;;;;;;1.89;55.70;98491.34;6116939;28;20242;-88
2021/12/21 10:31:41;;;;;;;1.40;1.20;;;;;;;1.97;55.82;98484.13;6098905;28;20231;-91
2021/12/21 10:35:05;;;;;;;2.57;1.10;;;;;;;1.93;55.10;98485.13;6114542;28;20231;-90
2021/12/21 10:38:07;;;;;;;2.83;1.00;;;;;;;1.58;53.53;98484.50;6141050;28;20326;-89
2021/12/21 10:41:12;;;;;;;2.17;1.50;;;;;;;1.55;55.06;98475.94;6131991;28;20234;-91
2021/12/21 10:44:18;;;;;;;1.77;1.53;;;;;;;1.62;55.72;98475.69;6133313;28;20239;-89
2021/12/21 10:47:21;;;;;;;2.63;1.50;;;;;;;1.64;54.50;98467.84;6133511;28;20746;-89
2021/12/21 10:50:25;;;;;;;2.07;1.60;;;;;;;1.33;54.97;98463.59;6133585;28;20317;-90
2021/12/21 10:53:27;;;;;;;2.60;1.90;;;;;;;0.97;55.83;98468.19;6132488;28;20227;-88
2021/12/21 10:56:30;;;;;;;4.83;1.40;;;;;;;0.90;55.57;98460.63;6101524;29;20239;-89
2021/12/21 10:59:35;;;;;;;1.80;1.50;;;;;;;0.99;55.85;98465.53;6109563;28;20227;-88
2021/12/21 11:02:37;;;;;;;2.87;1.40;;;;;;;0.87;58.16;98464.16;6101748;28;20576;-89
2021/12/21 11:05:42;;;;;;;3.20;1.60;;;;;;;0.70;59.47;98462.00;6098570;28;20241;-89
2021/12/21 11:08:48;;;;;;;2.27;1.30;;;;;;;0.53;60.61;98464.22;6119895;28;20231;-90
2021/12/21 11:11:57;;;;;;;2.50;1.60;;;;;;;0.37;60.47;98462.97;6109957;28;20250;-87
2021/12/21 11:15:01;;;;;;;2.57;1.37;;;;;;;0.24;60.67;98457.25;6130972;28;20837;-88
2021/12/21 11:18:09;;;;;;;2.00;1.63;;;;;;;0.16;60.67;98463.53;6131963;28;20230;-88
2021/12/21 11:21:11;;;;;;;1.47;1.30;;;;;;;0.08;61.63;98455.94;6132523;28;20210;-89
2021/12/21 11:24:17;;;;;;;1.73;1.63;;;;;;;0.15;61.64;98451.44;6107283;28;20246;-88
2021/12/21 11:27:22;;;;;;;2.30;1.47;;;;;;;0.15;61.88;98446.25;6108755;28;20215;-89
2021/12/21 11:30:24;;;;;;;1.90;1.23;;;;;;;0.13;62.08;98448.03;6124912;28;20310;-89
2021/12/21 11:33:29;;;;;;;2.37;1.50;;;;;;;0.03;62.04;98439.63;6109355;28;20231;-88
2021/12/21 11:39:54;;;;;;;1.37;1.27;;;;;;;-0.17;63.51;98436.69;6124573;28;20232;-87
2021/12/21 11:43:10;;;;;;;2.20;1.47;;;;;;;-0.17;63.18;98434.09;6109015;28;20258;-88
2021/12/21 11:46:15;;;;;;;2.47;1.50;;;;;;;-0.09;63.38;98427.81;6101285;29;20657;-88
2021/12/21 11:49:34;;;;;;;3.43;1.73;;;;;;;0.22;63.37;98420.09;6107372;28;20770;-88
2021/12/21 11:52:53;;;;;;;2.00;1.60;;;;;;;0.46;61.55;98415.97;6123898;28;20318;-88
2021/12/21 11:55:56;;;;;;;1.80;1.63;;;;;;;0.64;60.83;98412.00;6123356;28;20330;-89
2021/12/21 11:58:58;;;;;;;3.03;1.73;;;;;;;0.99;61.16;98403.16;6123470;28;20234;-88
2021/12/21 12:02:03;;;;;;;2.27;1.60;;;;;;;1.15;57.97;98407.00;6131870;28;20234;-89
2021/12/21 12:05:28;;;;;;;3.37;1.63;;;;;;;1.14;56.20;98394.88;6119990;28;20243;-89
2021/12/21 12:08:49;;;;;;;2.83;1.70;;;;;;;1.20;56.43;98394.69;6127294;28;20280;-88
2021/12/21 12:11:52;;;;;;;1.93;1.50;;;;;;;1.13;56.83;98395.78;6131262;28;20226;-88
2021/12/21 12:15:01;;;;;;;1.93;1.37;;;;;;;1.06;56.39;98387.34;6106805;28;20659;-88
2021/12/21 12:18:03;;;;;;;1.80;1.37;;;;;;;1.02;55.38;98387.47;6114409;28;20862;-89
2021/12/21 12:21:17;;;;;;;2.37;1.70;;;;;;;1.04;56.86;98388.28;6133982;28;20686;-89
2021/12/21 12:24:21;;;;;;;2.70;1.43;;;;;;;0.98;56.33;98391.91;6129030;28;20683;-88
2021/12/21 12:27:28;;;;;;;1.97;1.67;;;;;;;0.98;57.09;98388.47;6124504;28;20337;-90
2021/12/21 12:30:31;;;;;;;1.97;1.47;;;;;;;1.02;57.43;98393.50;6103197;28;20701;-88
2021/12/21 12:33:42;;;;;;;3.13;1.43;;;;;;;1.35;57.35;98389.00;6084646;29;20666;-88
2021/12/21 12:36:50;;;;;;;2.17;1.30;;;;;;;1.48;54.67;98386.88;6099481;29;20240;-89
2021/12/21 12:39:55;;;;;;;2.37;1.37;;;;;;;1.41;54.14;98390.56;6107263;28;20329;-89
2021/12/21 12:43:09;;;;;;;2.57;1.53;;;;;;;1.24;54.92;98391.09;6108344;28;20603;-88
2021/12/21 12:46:23;;;;;;;1.50;1.40;;;;;;;1.13;57.22;98382.78;6106862;28;20596;-88
2021/12/21 12:49:29;;;;;;;2.00;1.40;;;;;;;1.02;58.49;98396.09;6091567;28;20731;-89
2021/12/21 12:52:32;;;;;;;1.20;1.10;;;;;;;0.91;59.42;98387.78;6109544;28;20230;-88
2021/12/21 12:55:45;;;;;;;1.70;1.40;;;;;;;0.80;61.03;98386.44;6115275;29;20246;-89
2021/12/21 12:59:07;;;;;;;2.00;1.23;;;;;;;0.71;62.06;98395.31;6111166;28;20238;-89
2021/12/21 13:02:10;;;;;;;2.47;1.50;;;;;;;0.59;62.12;98386.19;6102937;29;20272;-88
2021/12/21 13:05:12;;;;;;;3.00;1.80;;;;;;;0.47;62.89;98383.94;6103757;29;20237;-88
2021/12/21 13:08:17;;;;;;;3.30;1.80;;;;;;;0.40;63.18;98372.00;6089634;29;20392;-88
2021/12/21 13:11:26;;;;;;;2.63;2.43;;;;;;;0.33;64.00;98381.72;6112259;28;20322;-88
2021/12/21 13:14:28;;;;;;;4.40;2.23;;;;;;;0.25;64.28;98369.84;6095424;28;20640;-88
2021/12/21 13:17:30;;;;;;;2.30;2.10;;;;;;;0.18;64.27;98370.91;6123887;28;20322;-88
2021/12/21 13:20:33;;;;;;;2.90;2.17;;;;;;;0.08;64.89;98372.06;6127309;28;20231;-88
2021/12/21 13:23:35;;;;;;;2.20;2.00;;;;;;;-0.07;65.43;98368.97;6097788;28;20248;-88
2021/12/21 13:26:41;;;;;;;2.97;1.90;;;;;;;-0.18;65.86;98367.56;6100360;28;20603;-88
2021/12/21 13:29:44;;;;;;;2.33;2.00;;;;;;;-0.30;66.51;98370.50;6112118;28;21189;-91
2021/12/21 13:32:46;;;;;;;1.83;1.60;;;;;;;-0.43;66.79;98370.81;6112572;28;20229;-88
2021/12/21 13:35:51;;;;;;;1.70;1.60;;;;;;;-0.49;67.29;98375.28;6089440;29;20240;-88
2021/12/21 13:38:55;;;;;;;2.03;1.83;;;;;;;-0.56;67.38;98373.72;6126407;28;20236;-89
2021/12/21 13:42:01;;;;;;;2.27;2.00;;;;;;;-0.65;67.78;98371.38;6126291;28;20586;-88
2021/12/21 13:45:06;;;;;;;2.57;1.80;;;;;;;-0.76;67.66;98369.88;6135731;28;20245;-89
2021/12/21 13:48:17;;;;;;;2.70;1.70;;;;;;;-0.94;68.07;98365.16;6140409;28;20206;-89
2021/12/21 13:51:21;;;;;;;3.27;1.80;;;;;;;-1.10;68.11;98363.81;6133803;28;20253;-88
2021/12/21 13:54:25;;;;;;;1.47;1.37;;;;;;;-1.16;68.31;98369.13;6113506;28;20231;-88
2021/12/21 13:57:28;;;;;;;2.63;1.70;;;;;;;-1.25;68.58;98367.59;6113459;28;20223;-88
2021/12/21 14:00:34;;;;;;;1.90;1.40;;;;;;;-1.34;68.75;98383.31;6115907;28;20774;-88
2021/12/21 14:03:45;;;;;;;3.07;1.90;;;;;;;-1.46;69.18;98381.00;6132516;28;20244;-88
2021/12/21 14:06:47;;;;;;;1.43;1.30;;;;;;;-1.59;68.93;98388.16;6128441;28;20227;-88
2021/12/21 14:10:01;;;;;;;2.20;1.77;;;;;;;-1.67;69.14;98382.28;6131242;28;20244;-88
2021/12/21 14:13:03;;;;;;;1.60;1.50;;;;;;;-1.70;69.40;98381.53;6110006;28;20236;-89
2021/12/21 14:16:10;;;;;;;2.33;1.90;;;;;;;-1.75;70.03;98394.53;6130895;28;20254;-88
2021/12/21 14:19:25;;;;;;;1.93;1.63;;;;;;;-1.82;70.07;98387.78;6133836;28;20714;-88
2021/12/21 14:22:27;;;;;;;1.87;1.77;;;;;;;-1.89;70.27;98394.78;6116336;28;20258;-88
2021/12/21 14:25:29;;;;;;;1.90;1.70;;;;;;;-1.94;70.71;98393.19;6110460;28;20782;-89
2021/12/21 14:28:31;;;;;;;2.97;1.70;;;;;;;-2.00;70.79;98395.91;6135073;28;20329;-87
2021/12/21 14:35:04;;;;;;;4.10;2.30;;;;;;;-2.21;71.19;98391.13;6117229;28;20230;-89
2021/12/21 14:38:08;;;;;;;2.73;2.20;;;;;;;-2.35;71.88;98399.97;6132605;28;20592;-88
2021/12/21 14:41:10;;;;;;;3.90;2.90;;;;;;;-2.47;72.11;98399.31;6133157;28;20234;-88
2021/12/21 14:44:19;;;;;;;5.73;3.40;;;;;;;-2.57;72.39;98401.19;6133865;28;20734;-88
2021/12/21 14:47:27;;;;;;;7.30;4.50;;;;;;;-2.67;72.24;98397.06;6132779;28;20305;-88
2021/12/21 14:50:38;;;;;;;11.83;6.20;;;;;;;-2.78;73.03;98407.56;6098137;28;20287;-89
2021/12/21 14:53:49;;;;;;;11.40;6.67;;;;;;;-2.90;73.07;98402.63;6142663;28;20352;-88
2021/12/21 14:56:53;;;;;;;13.87;7.33;;;;;;;-3.01;73.09;98400.19;6132291;28;20238;-88
2021/12/21 14:59:55;;;;;;;10.53;7.03;;;;;;;-3.07;72.92;98405.44;6132574;28;20734;-88
2021/12/21 15:03:01;;;;;;;11.60;6.40;;;;;;;-3.12;73.25;98401.22;6124004;28;20789;-88
2021/12/21 15:06:04;;;;;;;12.53;6.97;;;;;;;-3.21;73.20;98406.53;6107862;28;20259;-88
2021/12/21 15:09:06;;;;;;;8.90;6.20;;;;;;;-3.27;73.24;98406.59;6106740;29;20234;-88
2021/12/21 15:12:09;;;;;;;10.97;6.07;;;;;;;-3.33;74.41;98412.69;6122590;28;20210;-88
2021/12/21 15:15:11;;;;;;;8.13;5.43;;;;;;;-3.39;74.24;98410.19;6107784;28;20681;-87
2021/12/21 15:18:14;;;;;;;7.90;5.23;;;;;;;-3.42;74.42;98407.66;6124643;28;20802;-87
2021/12/21 15:21:16;;;;;;;8.07;4.67;;;;;;;-3.42;73.97;98413.69;6127006;28;20211;-87
2021/12/21 15:24:18;;;;;;;5.90;4.17;;;;;;;-3.44;74.26;98417.13;6132483;28;20214;-88
2021/12/21 15:27:21;;;;;;;3.87;3.20;;;;;;;-3.48;74.42;98418.88;6131722;28;20422;-87
2021/12/21 15:30:26;;;;;;;4.97;3.10;;;;;;;-3.49;74.50;98416.31;6132841;28;20242;-88
2021/12/21 15:33:28;;;;;;;3.43;2.20;;;;;;;-3.52;74.33;98419.81;6133740;28;20600;-88
2021/12/21 15:36:31;;;;;;;2.67;2.23;;;;;;;-3.56;75.11;98425.88;6125608;28;20227;-88
2021/12/21 15:39:34;;;;;;;3.83;1.57;;;;;;;-3.58;74.98;98416.44;6132754;28;20230;-87